Time;durP1;ratioP1;P1;durP2;ratioP2;P2;SDS_P1;SDS_P2;PMS_P1;PMS_P2;Temp;Humidity;BMP_temperature;BMP_pressure;BME280_temperature;BME280_humidity;BME280_pressure;Samples;Min_cycle;Max_cycle;Signal;HPM_P1;HPM_P2
2023/05/09 00:01:09;;;;;;;11.05;8.65;;;;;;;;;;5115202;28;20061;-83
2023/05/09 00:03:34;;;;;;;11.52;8.60;;;;;;;;;;5133546;28;20525;-83
2023/05/09 00:06:01;;;;;;;12.52;8.48;;;;;;;;;;5115781;28;20118;-84
2023/05/09 00:08:26;;;;;;;13.18;8.75;;;;;;;;;;5132936;28;20199;-83
2023/05/09 00:10:52;;;;;;;11.15;8.20;;;;;;;;;;5114966;28;20117;-83
2023/05/09 00:13:18;;;;;;;10.60;8.68;;;;;;;;;;5115344;28;20035;-83
2023/05/09 00:15:45;;;;;;;11.07;8.15;;;;;;;;;;5115357;28;20027;-83
2023/05/09 00:18:11;;;;;;;11.50;7.97;;;;;;;;;;5135294;27;20474;-80
2023/05/09 00:20:39;;;;;;;12.60;8.70;;;;;;;;;;5118802;27;20034;-83
2023/05/09 00:23:05;;;;;;;11.60;8.15;;;;;;;;;;5119026;27;20023;-83
2023/05/09 00:25:31;;;;;;;12.77;8.60;;;;;;;;;;5101894;27;20046;-82
2023/05/09 00:27:56;;;;;;;11.90;8.18;;;;;;;;;;5101482;27;20038;-83
2023/05/09 00:30:22;;;;;;;12.02;8.68;;;;;;;;;;5136965;27;20033;-83
2023/05/09 00:32:47;;;;;;;11.45;8.18;;;;;;;;;;5137166;27;20027;-83
2023/05/09 00:35:12;;;;;;;11.93;8.30;;;;;;;;;;5118415;27;20050;-83
2023/05/09 00:37:38;;;;;;;9.57;8.02;;;;;;;;;;5118797;27;20042;-82
2023/05/09 00:40:05;;;;;;;11.73;7.72;;;;;;;;;;5136758;27;20034;-82
2023/05/09 00:42:30;;;;;;;12.45;8.48;;;;;;;;;;5118466;27;20031;-82
2023/05/09 00:44:56;;;;;;;11.85;8.10;;;;;;;;;;5137182;27;20034;-82
2023/05/09 00:47:22;;;;;;;11.88;8.13;;;;;;;;;;5118238;27;20474;-82
2023/05/09 00:49:48;;;;;;;10.93;8.00;;;;;;;;;;5101121;27;20046;-82
2023/05/09 00:52:14;;;;;;;10.20;7.75;;;;;;;;;;5101433;27;20031;-82
2023/05/09 00:54:39;;;;;;;11.52;7.70;;;;;;;;;;5118370;27;20478;-82
2023/05/09 00:57:05;;;;;;;11.68;7.75;;;;;;;;;;5136507;27;20393;-82
2023/05/09 00:59:30;;;;;;;13.35;8.05;;;;;;;;;;5136363;27;20030;-82
2023/05/09 01:01:56;;;;;;;12.45;8.48;;;;;;;;;;5117974;27;20072;-82
2023/05/09 01:04:21;;;;;;;12.30;8.05;;;;;;;;;;5136538;27;20042;-81
2023/05/09 01:07:10;;;;;;;12.73;8.27;;;;;;;;;;5118272;27;20126;-82
2023/05/09 01:10:03;;;;;;;11.82;8.23;;;;;;;;;;5117778;27;20039;-82
2023/05/09 01:13:02;;;;;;;11.88;8.50;;;;;;;;;;5118041;27;20562;-82
2023/05/09 01:15:42;;;;;;;12.52;8.95;;;;;;;;;;5131232;27;20031;-82
2023/05/09 01:18:18;;;;;;;12.07;8.07;;;;;;;;;;5117595;27;20027;-82
2023/05/09 01:20:50;;;;;;;11.68;8.10;;;;;;;;;;5117515;27;20477;-82
2023/05/09 01:23:36;;;;;;;11.95;8.10;;;;;;;;;;5100603;27;20034;-82
2023/05/09 01:26:04;;;;;;;12.27;8.80;;;;;;;;;;5136056;27;20072;-82
2023/05/09 01:28:52;;;;;;;12.65;7.93;;;;;;;;;;5117357;27;20019;-82
2023/05/09 01:31:18;;;;;;;11.45;8.48;;;;;;;;;;5135659;27;20027;-82
2023/05/09 01:33:49;;;;;;;12.55;8.98;;;;;;;;;;5117343;27;20102;-81
2023/05/09 01:36:16;;;;;;;15.18;8.52;;;;;;;;;;5117619;27;20030;-81
2023/05/09 01:38:44;;;;;;;13.10;8.60;;;;;;;;;;5135602;27;20114;-81
2023/05/09 01:41:11;;;;;;;11.38;8.15;;;;;;;;;;5117274;27;20091;-83
2023/05/09 01:43:37;;;;;;;10.85;7.85;;;;;;;;;;5100066;27;20462;-84
2023/05/09 01:46:04;;;;;;;11.85;7.70;;;;;;;;;;5117154;27;20023;-83
2023/05/09 01:48:30;;;;;;;13.15;8.65;;;;;;;;;;5117196;27;20393;-83
2023/05/09 01:50:56;;;;;;;10.95;8.32;;;;;;;;;;5117387;27;20119;-84
2023/05/09 01:53:23;;;;;;;12.60;8.70;;;;;;;;;;5117019;27;20059;-83
2023/05/09 01:55:49;;;;;;;12.65;8.07;;;;;;;;;;5116732;27;20461;-83
2023/05/09 01:58:16;;;;;;;11.75;8.50;;;;;;;;;;5116954;27;20034;-84
2023/05/09 02:00:42;;;;;;;11.60;8.10;;;;;;;;;;5116863;27;20059;-83
2023/05/09 02:03:08;;;;;;;11.88;8.43;;;;;;;;;;5099667;27;20062;-82
2023/05/09 02:05:35;;;;;;;12.68;9.23;;;;;;;;;;5116894;27;20501;-83
2023/05/09 02:08:00;;;;;;;12.25;8.93;;;;;;;;;;5135068;27;20051;-83
2023/05/09 02:10:27;;;;;;;11.85;8.07;;;;;;;;;;5135118;27;20069;-83
2023/05/09 02:12:53;;;;;;;12.57;8.85;;;;;;;;;;5135470;27;20039;-83
2023/05/09 02:15:19;;;;;;;12.60;8.73;;;;;;;;;;5116726;27;20390;-82
2023/05/09 02:17:45;;;;;;;12.05;8.82;;;;;;;;;;5099723;27;20079;-82
2023/05/09 02:20:10;;;;;;;10.93;8.30;;;;;;;;;;5116913;27;20027;-82
2023/05/09 02:22:36;;;;;;;10.25;8.07;;;;;;;;;;5116451;27;20075;-82
2023/05/09 02:25:06;;;;;;;11.70;8.00;;;;;;;;;;5099533;27;20023;-82
2023/05/09 02:27:33;;;;;;;12.20;8.43;;;;;;;;;;5134695;27;20079;-82
2023/05/09 02:30:02;;;;;;;10.57;8.15;;;;;;;;;;5099107;27;20038;-81
2023/05/09 02:32:30;;;;;;;14.88;8.60;;;;;;;;;;5116661;27;20064;-82
2023/05/09 02:34:57;;;;;;;12.45;8.38;;;;;;;;;;5116197;27;20019;-82
2023/05/09 02:37:23;;;;;;;14.40;9.05;;;;;;;;;;5116378;27;20060;-82
2023/05/09 02:39:48;;;;;;;12.40;8.43;;;;;;;;;;5116037;27;20055;-82
2023/05/09 02:42:20;;;;;;;10.73;8.38;;;;;;;;;;5115265;27;20092;-82
2023/05/09 02:44:45;;;;;;;11.68;8.60;;;;;;;;;;5115824;27;20045;-82
2023/05/09 02:47:10;;;;;;;10.35;8.13;;;;;;;;;;5082317;27;20106;-83
2023/05/09 02:49:36;;;;;;;10.80;7.85;;;;;;;;;;5082129;27;20392;-83
2023/05/09 02:52:01;;;;;;;11.48;7.82;;;;;;;;;;5098912;27;20031;-83
2023/05/09 02:54:27;;;;;;;13.48;8.40;;;;;;;;;;5115820;27;20035;-82
2023/05/09 02:56:52;;;;;;;11.98;8.30;;;;;;;;;;5098851;27;20031;-82
2023/05/09 02:59:18;;;;;;;10.50;7.80;;;;;;;;;;5134396;27;20385;-81
2023/05/09 03:01:44;;;;;;;12.02;7.88;;;;;;;;;;5099351;27;20024;-82
2023/05/09 03:04:09;;;;;;;12.05;8.52;;;;;;;;;;5115740;28;20027;-82
2023/05/09 03:06:35;;;;;;;11.30;8.07;;;;;;;;;;5134192;27;20027;-82
2023/05/09 03:09:00;;;;;;;11.73;8.38;;;;;;;;;;5115700;27;20047;-83
2023/05/09 03:11:26;;;;;;;12.75;8.43;;;;;;;;;;5115507;27;20462;-82
2023/05/09 03:13:51;;;;;;;12.65;8.32;;;;;;;;;;5115590;28;20042;-82
2023/05/09 03:16:19;;;;;;;11.50;8.00;;;;;;;;;;5098554;28;20027;-81
2023/05/09 03:18:45;;;;;;;11.60;7.60;;;;;;;;;;5115922;28;20111;-82
2023/05/09 03:21:10;;;;;;;11.82;7.88;;;;;;;;;;5134198;28;20049;-82
2023/05/09 03:23:35;;;;;;;10.88;7.75;;;;;;;;;;5115351;28;20038;-82
2023/05/09 03:26:01;;;;;;;10.85;7.82;;;;;;;;;;5098841;28;20023;-82
2023/05/09 03:28:27;;;;;;;12.30;8.63;;;;;;;;;;5115866;28;20114;-82
2023/05/09 03:30:52;;;;;;;13.25;8.50;;;;;;;;;;5081716;28;20037;-82
2023/05/09 03:33:18;;;;;;;11.27;8.20;;;;;;;;;;5115460;28;20033;-82
2023/05/09 03:35:43;;;;;;;11.32;8.27;;;;;;;;;;5098270;28;20062;-82
2023/05/09 03:38:08;;;;;;;13.48;8.15;;;;;;;;;;5081601;28;20034;-82
2023/05/09 03:40:34;;;;;;;10.95;8.10;;;;;;;;;;5098701;28;20132;-82
2023/05/09 03:42:59;;;;;;;11.80;8.07;;;;;;;;;;5116045;28;20028;-83
2023/05/09 03:45:25;;;;;;;12.48;8.45;;;;;;;;;;5134494;28;20106;-81
2023/05/09 03:47:50;;;;;;;12.75;8.05;;;;;;;;;;5116014;28;20047;-83
2023/05/09 03:50:16;;;;;;;11.32;8.00;;;;;;;;;;5098542;28;20035;-88
2023/05/09 03:52:41;;;;;;;12.70;8.43;;;;;;;;;;5135194;27;20529;-87
2023/05/09 03:55:07;;;;;;;10.98;8.20;;;;;;;;;;5119290;27;20038;-88
2023/05/09 03:57:34;;;;;;;12.65;8.43;;;;;;;;;;5120328;27;20027;-87
2023/05/09 03:59:59;;;;;;;16.20;9.43;;;;;;;;;;5102235;27;20038;-86
2023/05/09 04:02:25;;;;;;;15.27;9.27;;;;;;;;;;5138102;27;20027;-86
2023/05/09 04:04:51;;;;;;;18.75;9.30;;;;;;;;;;5119154;27;20023;-86
2023/05/09 04:07:17;;;;;;;13.93;9.10;;;;;;;;;;5137825;27;20038;-86
2023/05/09 04:09:42;;;;;;;14.85;8.85;;;;;;;;;;5118494;27;20134;-86
2023/05/09 04:12:08;;;;;;;14.43;9.50;;;;;;;;;;5084966;27;20477;-81
2023/05/09 04:14:33;;;;;;;14.13;8.88;;;;;;;;;;5137207;27;20031;-83
2023/05/09 04:16:58;;;;;;;16.52;8.82;;;;;;;;;;5084718;27;20393;-84
2023/05/09 04:19:24;;;;;;;14.02;9.00;;;;;;;;;;5137038;27;20031;-86
2023/05/09 04:21:49;;;;;;;16.20;9.32;;;;;;;;;;5101586;27;20035;-79
2023/05/09 04:24:14;;;;;;;14.73;9.18;;;;;;;;;;5136545;27;20080;-80
2023/05/09 04:26:40;;;;;;;14.65;9.30;;;;;;;;;;5083134;27;20024;-81
2023/05/09 04:29:05;;;;;;;16.45;8.93;;;;;;;;;;5136381;27;20496;-84
2023/05/09 04:31:31;;;;;;;15.35;9.18;;;;;;;;;;5136457;27;20466;-90
2023/05/09 04:33:57;;;;;;;15.40;9.85;;;;;;;;;;5100911;27;20035;-83
2023/05/09 04:36:23;;;;;;;15.40;8.60;;;;;;;;;;5117578;27;20028;-85
2023/05/09 04:38:48;;;;;;;17.90;9.63;;;;;;;;;;5101157;27;20019;-85
2023/05/09 04:41:15;;;;;;;16.65;9.38;;;;;;;;;;5100389;27;20030;-85
2023/05/09 04:43:41;;;;;;;16.70;9.57;;;;;;;;;;5117684;27;20023;-84
2023/05/09 04:46:07;;;;;;;15.18;9.18;;;;;;;;;;5117810;27;20068;-83
2023/05/09 04:48:33;;;;;;;19.63;9.88;;;;;;;;;;5101124;27;20019;-91
2023/05/09 04:50:59;;;;;;;16.83;9.70;;;;;;;;;;5101254;27;20482;-86
2023/05/09 04:53:25;;;;;;;14.52;8.57;;;;;;;;;;5118694;27;20030;-85
2023/05/09 04:55:52;;;;;;;19.75;10.13;;;;;;;;;;5136145;27;20027;-87
2023/05/09 04:58:17;;;;;;;19.38;10.07;;;;;;;;;;5119250;27;20023;-85
2023/05/09 05:00:43;;;;;;;23.27;10.32;;;;;;;;;;5142656;27;20434;-88
2023/05/09 05:03:08;;;;;;;30.27;12.05;;;;;;;;;;5145004;27;20042;-84
2023/05/09 05:05:34;;;;;;;27.83;11.60;;;;;;;;;;5122820;27;20023;-88
2023/05/09 05:07:59;;;;;;;26.13;11.85;;;;;;;;;;5120043;27;20458;-88
2023/05/09 05:10:24;;;;;;;28.00;11.32;;;;;;;;;;5122736;27;20033;-88
2023/05/09 05:12:52;;;;;;;23.80;11.68;;;;;;;;;;5105433;27;20031;-88
2023/05/09 05:15:20;;;;;;;21.17;10.85;;;;;;;;;;5121482;27;20057;-88
2023/05/09 05:17:46;;;;;;;24.38;11.27;;;;;;;;;;5138091;27;20027;-88
2023/05/09 05:20:11;;;;;;;19.48;10.10;;;;;;;;;;5101585;27;20027;-89
2023/05/09 05:22:36;;;;;;;24.00;10.52;;;;;;;;;;5120650;27;20509;-89
2023/05/09 05:25:03;;;;;;;22.90;10.00;;;;;;;;;;5086822;27;20122;-87
2023/05/09 05:27:28;;;;;;;16.65;9.05;;;;;;;;;;5119243;27;20398;-88
2023/05/09 05:29:54;;;;;;;19.35;8.98;;;;;;;;;;5104412;27;20023;-89
2023/05/09 05:32:19;;;;;;;19.20;9.73;;;;;;;;;;5119157;27;20035;-88
2023/05/09 05:34:45;;;;;;;17.75;9.32;;;;;;;;;;5117826;27;20048;-88
2023/05/09 05:37:10;;;;;;;15.15;8.52;;;;;;;;;;5136455;27;20023;-88
2023/05/09 05:39:36;;;;;;;16.92;9.20;;;;;;;;;;5136752;27;20469;-87
2023/05/09 05:42:01;;;;;;;17.02;8.55;;;;;;;;;;5117763;27;20126;-86
2023/05/09 05:44:26;;;;;;;17.25;8.55;;;;;;;;;;5118375;27;20031;-87
2023/05/09 05:46:52;;;;;;;15.63;7.53;;;;;;;;;;5126376;27;20053;-86
2023/05/09 05:49:17;;;;;;;13.85;7.70;;;;;;;;;;5119260;27;20037;-85
2023/05/09 05:51:42;;;;;;;13.27;7.03;;;;;;;;;;5117943;27;20114;-87
2023/05/09 05:54:11;;;;;;;15.70;8.02;;;;;;;;;;5085123;27;20027;-87
2023/05/09 05:56:37;;;;;;;9.85;7.20;;;;;;;;;;5103459;27;20092;-88
2023/05/09 05:59:02;;;;;;;12.93;6.78;;;;;;;;;;5119444;27;20011;-88
2023/05/09 06:01:27;;;;;;;11.10;6.82;;;;;;;;;;5101449;27;20019;-87
2023/05/09 06:03:56;;;;;;;10.65;6.32;;;;;;;;;;5101663;27;20027;-87
2023/05/09 06:06:21;;;;;;;11.43;7.03;;;;;;;;;;5118573;27;20057;-86
2023/05/09 06:08:50;;;;;;;10.68;6.38;;;;;;;;;;5083134;27;20093;-88
2023/05/09 06:11:16;;;;;;;10.77;6.65;;;;;;;;;;5120358;27;20056;-88
2023/05/09 06:13:41;;;;;;;11.43;6.53;;;;;;;;;;5122031;27;20529;-88
2023/05/09 06:16:07;;;;;;;9.55;6.10;;;;;;;;;;5135435;27;20122;-87
2023/05/09 06:18:38;;;;;;;8.60;5.68;;;;;;;;;;5100179;27;20027;-88
2023/05/09 06:21:04;;;;;;;8.30;5.82;;;;;;;;;;5101724;27;20023;-87
2023/05/09 06:23:30;;;;;;;7.57;5.53;;;;;;;;;;5117433;27;20385;-87
2023/05/09 06:25:55;;;;;;;11.80;5.90;;;;;;;;;;5117119;27;20033;-87
2023/05/09 06:28:20;;;;;;;9.15;6.13;;;;;;;;;;5099233;27;20066;-87
2023/05/09 06:30:46;;;;;;;9.98;5.80;;;;;;;;;;5099643;27;20496;-87
2023/05/09 06:33:11;;;;;;;8.50;5.50;;;;;;;;;;5116524;27;20027;-87
2023/05/09 06:35:37;;;;;;;7.45;5.43;;;;;;;;;;5099331;27;20042;-87
2023/05/09 06:38:02;;;;;;;8.77;5.35;;;;;;;;;;5116773;27;20046;-87
2023/05/09 06:40:27;;;;;;;8.35;5.25;;;;;;;;;;5116744;28;20034;-87
2023/05/09 06:42:53;;;;;;;7.95;5.15;;;;;;;;;;5099352;27;20042;-86
2023/05/09 06:45:18;;;;;;;6.70;4.65;;;;;;;;;;5099563;27;20031;-87
2023/05/09 06:47:44;;;;;;;8.20;5.13;;;;;;;;;;5101456;27;20502;-87
2023/05/09 06:50:09;;;;;;;10.02;5.13;;;;;;;;;;5102155;27;20023;-88
2023/05/09 06:52:35;;;;;;;7.43;4.72;;;;;;;;;;5134797;27;20027;-86
2023/05/09 06:55:00;;;;;;;8.25;4.80;;;;;;;;;;5082276;27;20038;-86
2023/05/09 06:57:26;;;;;;;9.88;4.88;;;;;;;;;;5115637;27;20031;-85
2023/05/09 06:59:51;;;;;;;7.25;4.82;;;;;;;;;;5115913;27;20552;-87
2023/05/09 07:02:16;;;;;;;6.35;4.78;;;;;;;;;;5134280;27;20088;-87
2023/05/09 07:04:42;;;;;;;7.55;4.90;;;;;;;;;;5098552;27;20500;-87
2023/05/09 07:07:07;;;;;;;8.77;4.50;;;;;;;;;;5116162;27;20046;-88
2023/05/09 07:09:33;;;;;;;5.68;4.72;;;;;;;;;;5117720;27;20566;-86
2023/05/09 07:12:01;;;;;;;7.45;4.72;;;;;;;;;;5134127;27;20038;-87
2023/05/09 07:14:26;;;;;;;8.95;4.75;;;;;;;;;;5098752;28;20490;-88
2023/05/09 07:16:52;;;;;;;7.90;5.03;;;;;;;;;;5085288;28;20035;-89
2023/05/09 07:19:17;;;;;;;5.93;4.32;;;;;;;;;;5099199;28;20148;-89
2023/05/09 07:21:43;;;;;;;6.95;4.38;;;;;;;;;;5115686;28;20035;-88
2023/05/09 07:24:08;;;;;;;6.70;4.97;;;;;;;;;;5081550;28;20027;-88
2023/05/09 07:26:35;;;;;;;6.13;4.45;;;;;;;;;;5116370;27;20058;-87
2023/05/09 07:29:00;;;;;;;6.72;4.43;;;;;;;;;;5137376;27;20023;-86
2023/05/09 07:31:26;;;;;;;7.65;5.18;;;;;;;;;;5138276;27;20031;-87
2023/05/09 07:33:51;;;;;;;4.80;4.00;;;;;;;;;;5138211;27;20051;-87
2023/05/09 07:36:17;;;;;;;7.22;4.40;;;;;;;;;;5120126;27;20027;-87
2023/05/09 07:38:42;;;;;;;6.90;4.28;;;;;;;;;;5119655;27;20425;-87
2023/05/09 07:41:08;;;;;;;7.57;4.30;;;;;;;;;;5137997;27;20027;-88
2023/05/09 07:43:33;;;;;;;5.75;4.03;;;;;;;;;;5119987;27;20031;-88
2023/05/09 07:45:59;;;;;;;4.85;3.78;;;;;;;;;;5086211;27;20339;-88
2023/05/09 07:48:25;;;;;;;6.03;3.97;;;;;;;;;;5108073;27;20023;-88
2023/05/09 07:50:50;;;;;;;6.13;4.22;;;;;;;;;;5121385;27;20023;-87
2023/05/09 07:53:16;;;;;;;6.72;4.03;;;;;;;;;;5138670;27;20085;-86
2023/05/09 07:55:43;;;;;;;6.22;4.15;;;;;;;;;;5119549;27;20112;-87
2023/05/09 07:58:08;;;;;;;5.85;4.30;;;;;;;;;;5120317;27;20334;-86
2023/05/09 08:00:34;;;;;;;6.60;4.07;;;;;;;;;;5104132;27;20122;-86
2023/05/09 08:02:59;;;;;;;4.90;3.50;;;;;;;;;;5102854;27;20058;-87
2023/05/09 08:05:24;;;;;;;5.00;3.85;;;;;;;;;;5086864;27;20026;-88
2023/05/09 08:07:50;;;;;;;5.32;3.60;;;;;;;;;;5105406;27;20054;-88
2023/05/09 08:10:15;;;;;;;4.65;3.53;;;;;;;;;;5086251;28;20059;-87
2023/05/09 08:12:41;;;;;;;5.20;4.00;;;;;;;;;;5119489;28;20585;-87
2023/05/09 08:15:06;;;;;;;7.22;3.85;;;;;;;;;;5100592;28;20091;-87
2023/05/09 08:17:32;;;;;;;6.22;3.63;;;;;;;;;;5102847;28;20031;-87
2023/05/09 08:19:57;;;;;;;6.20;3.95;;;;;;;;;;5112720;28;20084;-88
2023/05/09 08:22:23;;;;;;;4.28;3.38;;;;;;;;;;5070921;28;20042;-88
2023/05/09 08:24:48;;;;;;;5.57;3.50;;;;;;;;;;5118332;28;20482;-88
2023/05/09 08:27:14;;;;;;;4.63;3.67;;;;;;;;;;5081498;28;20027;-88
2023/05/09 08:29:40;;;;;;;6.60;3.65;;;;;;;;;;5098833;28;20027;-89
2023/05/09 08:32:06;;;;;;;5.57;3.47;;;;;;;;;;5082665;28;20058;-88
2023/05/09 08:34:33;;;;;;;5.32;3.42;;;;;;;;;;5083110;28;20058;-88
2023/05/09 08:36:59;;;;;;;4.53;3.50;;;;;;;;;;5104111;28;20023;-89
2023/05/09 08:39:24;;;;;;;6.93;3.33;;;;;;;;;;5087419;28;20496;-87
2023/05/09 08:41:51;;;;;;;4.28;3.10;;;;;;;;;;5103387;28;20118;-90
2023/05/09 08:44:17;;;;;;;4.22;3.15;;;;;;;;;;5084676;28;20068;-88
2023/05/09 08:46:43;;;;;;;4.72;3.35;;;;;;;;;;5064885;28;20036;-89
2023/05/09 08:49:08;;;;;;;3.83;3.10;;;;;;;;;;5064083;28;20047;-89
2023/05/09 08:51:37;;;;;;;4.30;3.40;;;;;;;;;;5097836;28;20458;-87
2023/05/09 08:54:03;;;;;;;4.45;3.33;;;;;;;;;;5064348;28;20470;-90
2023/05/09 08:56:29;;;;;;;3.83;2.95;;;;;;;;;;5097539;28;20085;-89
2023/05/09 08:58:55;;;;;;;3.15;2.80;;;;;;;;;;5097870;28;20023;-89
2023/05/09 09:01:21;;;;;;;4.78;2.67;;;;;;;;;;5097921;28;20025;-88
2023/05/09 09:03:48;;;;;;;4.43;3.17;;;;;;;;;;5098302;28;20023;-88
2023/05/09 09:06:15;;;;;;;4.93;3.20;;;;;;;;;;5099182;28;20373;-89
2023/05/09 09:08:43;;;;;;;3.95;2.90;;;;;;;;;;5087446;27;20112;-88
2023/05/09 09:11:15;;;;;;;5.35;2.80;;;;;;;;;;5100498;27;20080;-90
2023/05/09 09:13:41;;;;;;;4.07;3.10;;;;;;;;;;5117271;27;20110;-87
2023/05/09 09:16:10;;;;;;;3.72;2.95;;;;;;;;;;5136185;27;20046;-87
2023/05/09 09:18:35;;;;;;;4.05;2.80;;;;;;;;;;5100271;27;20031;-87
2023/05/09 09:21:09;;;;;;;3.92;2.88;;;;;;;;;;5100099;27;20031;-86
2023/05/09 09:23:34;;;;;;;;;;;;;;;;;;5121553;27;20378;-85
2023/05/09 09:26:03;;;;;;;2.65;2.33;;;;;;;;;;5117247;27;19919;-87
2023/05/09 09:28:28;;;;;;;3.70;2.70;;;;;;;;;;5117759;27;20023;-87
2023/05/09 09:30:54;;;;;;;3.03;2.50;;;;;;;;;;5117026;27;20472;-87
2023/05/09 09:33:25;;;;;;;2.60;2.40;;;;;;;;;;5116889;27;20069;-87
2023/05/09 09:35:52;;;;;;;2.80;2.47;;;;;;;;;;5117189;27;20406;-87
2023/05/09 09:38:18;;;;;;;3.95;2.50;;;;;;;;;;5083494;27;20054;-88
2023/05/09 09:40:57;;;;;;;3.97;2.47;;;;;;;;;;5101205;27;20023;-88
2023/05/09 09:43:29;;;;;;;5.55;2.63;;;;;;;;;;5100717;27;20027;-88
2023/05/09 09:45:56;;;;;;;3.10;2.47;;;;;;;;;;5117445;27;20012;-88
2023/05/09 09:48:25;;;;;;;4.43;2.55;;;;;;;;;;5135469;27;20084;-89
2023/05/09 09:50:53;;;;;;;2.78;2.45;;;;;;;;;;5100033;27;20169;-89
2023/05/09 09:53:19;;;;;;;3.20;2.22;;;;;;;;;;5100063;27;20027;-89
2023/05/09 09:55:49;;;;;;;3.10;2.33;;;;;;;;;;5099869;27;20047;-89
2023/05/09 09:58:20;;;;;;;1.85;1.75;;;;;;;;;;5100235;27;20026;-89
2023/05/09 10:00:46;;;;;;;2.08;1.92;;;;;;;;;;5084008;27;20035;-89
2023/05/09 10:03:15;;;;;;;2.40;2.20;;;;;;;;;;5117193;27;20046;-88
2023/05/09 10:05:41;;;;;;;2.70;2.15;;;;;;;;;;5099610;27;20038;-88
2023/05/09 10:08:08;;;;;;;3.70;2.20;;;;;;;;;;5136176;27;20027;-88
2023/05/09 10:10:34;;;;;;;2.80;2.33;;;;;;;;;;5135899;27;20027;-88
2023/05/09 10:13:08;;;;;;;2.30;1.80;;;;;;;;;;5117026;27;20063;-89
2023/05/09 10:15:36;;;;;;;2.10;1.90;;;;;;;;;;5116916;27;20089;-90
2023/05/09 10:18:03;;;;;;;3.15;2.00;;;;;;;;;;5099633;27;20030;-89
2023/05/09 10:20:29;;;;;;;4.38;2.13;;;;;;;;;;5135462;27;20035;-87
2023/05/09 10:22:57;;;;;;;2.42;2.22;;;;;;;;;;5117467;27;20019;-87
2023/05/09 10:25:41;;;;;;;2.30;1.88;;;;;;;;;;5119945;27;20015;-87
2023/05/09 10:28:11;;;;;;;2.72;2.10;;;;;;;;;;5104428;27;20019;-88
2023/05/09 10:30:55;;;;;;;3.85;2.03;;;;;;;;;;5122134;27;20023;-87
2023/05/09 10:33:25;;;;;;;1.95;1.73;;;;;;;;;;5116867;27;20027;-89
2023/05/09 10:35:50;;;;;;;2.97;1.70;;;;;;;;;;5116739;27;20027;-88
2023/05/09 10:38:17;;;;;;;2.50;1.80;;;;;;;;;;5117066;27;20088;-88
2023/05/09 10:40:46;;;;;;;2.00;1.55;;;;;;;;;;5135184;27;20023;-88
2023/05/09 10:43:12;;;;;;;2.65;1.60;;;;;;;;;;5119545;27;20042;-88
2023/05/09 10:45:37;;;;;;;1.88;1.73;;;;;;;;;;5116192;27;20027;-88
2023/05/09 10:48:05;;;;;;;3.72;1.90;;;;;;;;;;5116388;27;20038;-87
2023/05/09 10:50:31;;;;;;;1.98;1.70;;;;;;;;;;5115913;27;20545;-89
2023/05/09 10:53:04;;;;;;;2.90;1.75;;;;;;;;;;5081825;27;20122;-89
2023/05/09 10:55:57;;;;;;;3.27;1.90;;;;;;;;;;5115364;27;20019;-89
2023/05/09 10:58:26;;;;;;;2.13;1.60;;;;;;;;;;5098395;27;20378;-88
2023/05/09 11:00:54;;;;;;;1.60;1.50;;;;;;;;;;5133650;27;20030;-86
2023/05/09 11:03:19;;;;;;;1.95;1.80;;;;;;;;;;5114033;27;20031;-88
2023/05/09 11:05:46;;;;;;;1.80;1.70;;;;;;;;;;5115049;28;20015;-88
2023/05/09 11:08:32;;;;;;;3.33;1.80;;;;;;;;;;5133158;27;20112;-87
2023/05/09 11:11:03;;;;;;;6.45;2.20;;;;;;;;;;5114614;27;20058;-86
2023/05/09 11:13:30;;;;;;;3.05;2.00;;;;;;;;;;5097849;28;20026;-85
2023/05/09 11:16:03;;;;;;;2.35;1.75;;;;;;;;;;5114035;28;20496;-86
2023/05/09 11:18:30;;;;;;;2.15;1.70;;;;;;;;;;5114124;28;20050;-86
2023/05/09 11:20:55;;;;;;;2.42;1.70;;;;;;;;;;5113845;28;20478;-85
2023/05/09 11:23:24;;;;;;;3.05;1.83;;;;;;;;;;5113877;28;20038;-86
2023/05/09 11:25:50;;;;;;;3.53;1.90;;;;;;;;;;5113787;28;20030;-85
2023/05/09 11:28:32;;;;;;;2.40;1.65;;;;;;;;;;5096517;28;20031;-86
2023/05/09 11:31:12;;;;;;;2.17;1.55;;;;;;;;;;5096296;28;20042;-86
2023/05/09 11:33:38;;;;;;;2.03;1.45;;;;;;;;;;5096988;28;20019;-86
2023/05/09 11:36:32;;;;;;;2.42;1.50;;;;;;;;;;5132711;28;20034;-86
2023/05/09 11:39:03;;;;;;;1.63;1.52;;;;;;;;;;5097868;28;20338;-86
2023/05/09 11:41:29;;;;;;;1.77;1.50;;;;;;;;;;5132664;28;20023;-85
2023/05/09 11:43:59;;;;;;;2.17;1.77;;;;;;;;;;5114340;28;20035;-86
2023/05/09 11:46:25;;;;;;;1.63;1.42;;;;;;;;;;5114025;28;20031;-86
2023/05/09 11:48:50;;;;;;;4.50;1.60;;;;;;;;;;5132475;28;20131;-85
2023/05/09 11:51:17;;;;;;;3.53;1.73;;;;;;;;;;5114655;28;20031;-85
2023/05/09 11:53:45;;;;;;;3.28;1.42;;;;;;;;;;5132651;28;20027;-86
2023/05/09 11:56:11;;;;;;;2.83;1.50;;;;;;;;;;5080478;28;20450;-87
2023/05/09 11:58:38;;;;;;;1.75;1.58;;;;;;;;;;5096723;28;20027;-86
2023/05/09 12:01:04;;;;;;;3.15;1.70;;;;;;;;;;5133160;28;20019;-86
2023/05/09 12:03:29;;;;;;;1.80;1.40;;;;;;;;;;5114517;28;20042;-86
2023/05/09 12:05:55;;;;;;;5.05;1.83;;;;;;;;;;5114317;28;20019;-86
2023/05/09 12:08:21;;;;;;;3.90;1.67;;;;;;;;;;5114323;28;20540;-86
2023/05/09 12:10:47;;;;;;;2.38;1.75;;;;;;;;;;5113712;28;20058;-86
2023/05/09 12:13:14;;;;;;;2.33;1.80;;;;;;;;;;5099180;27;20031;-86
2023/05/09 12:15:39;;;;;;;2.40;1.60;;;;;;;;;;5102767;27;20038;-87
2023/05/09 12:18:07;;;;;;;3.10;1.63;;;;;;;;;;5101832;27;20019;-86
2023/05/09 12:20:46;;;;;;;1.77;1.50;;;;;;;;;;5100972;27;20053;-87
2023/05/09 12:23:13;;;;;;;2.45;1.52;;;;;;;;;;5118412;27;20015;-87
2023/05/09 12:25:50;;;;;;;2.88;1.45;;;;;;;;;;5101277;27;20092;-87
2023/05/09 12:28:16;;;;;;;1.73;1.45;;;;;;;;;;5117264;27;20513;-86
2023/05/09 12:30:42;;;;;;;1.63;1.50;;;;;;;;;;5100213;27;20080;-86
2023/05/09 12:33:11;;;;;;;4.22;1.45;;;;;;;;;;5136161;27;20020;-87
2023/05/09 12:35:38;;;;;;;2.45;1.60;;;;;;;;;;5101331;27;20054;-88
2023/05/09 12:38:03;;;;;;;2.15;1.40;;;;;;;;;;5117490;27;20542;-85
2023/05/09 12:40:29;;;;;;;1.50;1.40;;;;;;;;;;5118031;27;20027;-85
2023/05/09 12:42:59;;;;;;;1.70;1.45;;;;;;;;;;5100417;27;20038;-86
2023/05/09 12:45:25;;;;;;;2.35;1.50;;;;;;;;;;5135536;27;20024;-86
2023/05/09 12:47:52;;;;;;;1.58;1.48;;;;;;;;;;5117347;27;20027;-86
2023/05/09 12:50:18;;;;;;;3.05;1.50;;;;;;;;;;5101044;27;20062;-84
2023/05/09 12:52:48;;;;;;;1.77;1.40;;;;;;;;;;5117214;27;20027;-85
2023/05/09 12:55:13;;;;;;;3.55;1.42;;;;;;;;;;5118428;27;20027;-93
2023/05/09 12:57:40;;;;;;;4.82;1.80;;;;;;;;;;5109584;27;20023;-94
2023/05/09 13:00:08;;;;;;;1.88;1.33;;;;;;;;;;5106128;27;20034;-94
2023/05/09 13:02:40;;;;;;;3.55;1.60;;;;;;;;;;5121251;27;20015;-93
2023/05/09 13:05:10;;;;;;;1.75;1.35;;;;;;;;;;5105542;27;20023;-92
2023/05/09 13:07:47;;;;;;;5.45;1.33;;;;;;;;;;5087337;27;20027;-91
2023/05/09 13:10:20;;;;;;;1.85;1.58;;;;;;;;;;5101730;27;20147;-92
2023/05/09 13:12:47;;;;;;;1.58;1.20;;;;;;;;;;5102061;27;20370;-91
2023/05/09 13:15:14;;;;;;;1.65;1.50;;;;;;;;;;5084288;27;20031;-91
2023/05/09 13:17:39;;;;;;;3.50;1.63;;;;;;;;;;5086708;27;20034;-90
2023/05/09 13:20:05;;;;;;;2.83;1.75;;;;;;;;;;5102454;27;20106;-91
2023/05/09 13:22:31;;;;;;;1.73;1.45;;;;;;;;;;5102126;27;20446;-91
2023/05/09 13:24:56;;;;;;;3.00;1.55;;;;;;;;;;5099509;28;20038;-91
2023/05/09 13:27:22;;;;;;;1.48;1.30;;;;;;;;;;5100384;27;20463;-91
2023/05/09 13:29:47;;;;;;;1.40;1.30;;;;;;;;;;5100285;27;20117;-92
2023/05/09 13:32:13;;;;;;;3.42;1.45;;;;;;;;;;5119547;27;20122;-92
2023/05/09 13:34:39;;;;;;;4.32;1.50;;;;;;;;;;5105597;27;20023;-90
2023/05/09 13:37:04;;;;;;;2.92;1.35;;;;;;;;;;5102298;27;20031;-91
2023/05/09 13:39:30;;;;;;;3.65;1.67;;;;;;;;;;5117575;27;20114;-88
2023/05/09 13:41:56;;;;;;;6.18;1.75;;;;;;;;;;5100124;27;20035;-85
2023/05/09 13:44:25;;;;;;;2.30;1.50;;;;;;;;;;5118744;27;20034;-84
2023/05/09 13:46:51;;;;;;;2.92;1.50;;;;;;;;;;5106120;27;20025;-85
2023/05/09 13:49:16;;;;;;;1.35;1.23;;;;;;;;;;5117159;27;20027;-85
2023/05/09 13:51:43;;;;;;;2.05;1.25;;;;;;;;;;5135896;27;20046;-84
2023/05/09 13:54:11;;;;;;;2.28;1.15;;;;;;;;;;5135708;27;20114;-84
2023/05/09 13:56:39;;;;;;;1.80;1.30;;;;;;;;;;5135121;27;20027;-84
2023/05/09 13:59:06;;;;;;;1.60;1.35;;;;;;;;;;5134756;27;20476;-84
2023/05/09 14:01:31;;;;;;;1.30;1.20;;;;;;;;;;5134910;27;20027;-85
2023/05/09 14:03:56;;;;;;;1.33;1.13;;;;;;;;;;5100937;27;20058;-85
2023/05/09 14:06:22;;;;;;;1.02;1.00;;;;;;;;;;5136105;27;20123;-84
2023/05/09 14:08:47;;;;;;;1.50;1.33;;;;;;;;;;5117747;27;20027;-87
2023/05/09 14:11:13;;;;;;;2.15;1.48;;;;;;;;;;5116091;27;20118;-89
2023/05/09 14:13:38;;;;;;;2.53;1.35;;;;;;;;;;5116548;27;20034;-87
2023/05/09 14:16:04;;;;;;;4.50;1.40;;;;;;;;;;5134647;27;20027;-88
2023/05/09 14:18:30;;;;;;;1.13;0.98;;;;;;;;;;5117074;27;20023;-86
2023/05/09 14:20:55;;;;;;;2.03;1.33;;;;;;;;;;5100022;27;20139;-86
2023/05/09 14:23:21;;;;;;;1.45;1.20;;;;;;;;;;5098290;27;20370;-86
2023/05/09 14:25:46;;;;;;;3.42;1.20;;;;;;;;;;5133251;27;20042;-87
2023/05/09 14:28:13;;;;;;;1.75;1.23;;;;;;;;;;5114408;27;20031;-86
2023/05/09 14:30:39;;;;;;;1.58;1.20;;;;;;;;;;5114630;27;20362;-87
2023/05/09 14:33:04;;;;;;;1.35;1.00;;;;;;;;;;5114681;27;20023;-87
2023/05/09 14:35:32;;;;;;;1.60;1.02;;;;;;;;;;5097130;27;20081;-86
2023/05/09 14:37:58;;;;;;;2.63;1.00;;;;;;;;;;5137460;27;20046;-85